sensor_id;sensor_type;location;lat;lon;timestamp;P1;durP1;ratioP1;P2;durP2;ratioP2
73684;SDS011;61985;51.070;14.064;2023-05-10T00:56:20;3.55;;;2.08;;
73684;SDS011;61985;51.070;14.064;2023-05-10T00:58:48;3.22;;;1.80;;
73684;SDS011;61985;51.070;14.064;2023-05-10T01:01:13;4.65;;;1.80;;
73684;SDS011;61985;51.070;14.064;2023-05-10T01:03:39;4.32;;;2.20;;
73684;SDS011;61985;51.070;14.064;2023-05-10T01:06:05;3.80;;;2.10;;
73684;SDS011;61985;51.070;14.064;2023-05-10T01:08:30;5.63;;;1.85;;
73684;SDS011;61985;51.070;14.064;2023-05-10T01:10:56;4.63;;;1.90;;
73684;SDS011;61985;51.070;14.064;2023-05-10T01:13:32;4.13;;;2.03;;
73684;SDS011;61985;51.070;14.064;2023-05-10T01:16:00;3.05;;;2.00;;
73684;SDS011;61985;51.070;14.064;2023-05-10T01:18:29;5.05;;;1.90;;
73684;SDS011;61985;51.070;14.064;2023-05-10T01:21:21;2.10;;;1.60;;
73684;SDS011;61985;51.070;14.064;2023-05-10T01:26:28;3.25;;;1.60;;
73684;SDS011;61985;51.070;14.064;2023-05-10T01:29:22;2.95;;;1.80;;
73684;SDS011;61985;51.070;14.064;2023-05-10T01:32:15;2.40;;;1.60;;
73684;SDS011;61985;51.070;14.064;2023-05-10T01:35:03;3.30;;;2.00;;
73684;SDS011;61985;51.070;14.064;2023-05-10T01:37:39;3.08;;;2.00;;
73684;SDS011;61985;51.070;14.064;2023-05-10T01:42:40;4.25;;;2.08;;
73684;SDS011;61985;51.070;14.064;2023-05-10T01:45:14;4.93;;;2.13;;
73684;SDS011;61985;51.070;14.064;2023-05-10T01:50:32;4.88;;;1.80;;
73684;SDS011;61985;51.070;14.064;2023-05-10T01:52:59;6.00;;;2.08;;
73684;SDS011;61985;51.070;14.064;2023-05-10T01:55:28;3.55;;;1.73;;
73684;SDS011;61985;51.070;14.064;2023-05-10T01:58:02;4.55;;;1.95;;
73684;SDS011;61985;51.070;14.064;2023-05-10T02:00:33;3.35;;;1.85;;
73684;SDS011;61985;51.070;14.064;2023-05-10T02:03:01;2.00;;;1.58;;
73684;SDS011;61985;51.070;14.064;2023-05-10T02:05:30;3.47;;;1.90;;
73684;SDS011;61985;51.070;14.064;2023-05-10T02:07:58;3.70;;;2.13;;
73684;SDS011;61985;51.070;14.064;2023-05-10T02:10:25;6.80;;;1.95;;
73684;SDS011;61985;51.070;14.064;2023-05-10T02:12:51;3.70;;;2.17;;
73684;SDS011;61985;51.070;14.064;2023-05-10T02:15:19;3.67;;;1.80;;
73684;SDS011;61985;51.070;14.064;2023-05-10T02:17:49;3.08;;;1.80;;
73684;SDS011;61985;51.070;14.064;2023-05-10T02:20:16;3.50;;;2.00;;
73684;SDS011;61985;51.070;14.064;2023-05-10T02:22:43;3.63;;;2.05;;
73684;SDS011;61985;51.070;14.064;2023-05-10T02:25:10;4.80;;;2.20;;
73684;SDS011;61985;51.070;14.064;2023-05-10T02:27:38;5.22;;;1.90;;
73684;SDS011;61985;51.070;14.064;2023-05-10T02:30:07;3.50;;;1.65;;
73684;SDS011;61985;51.070;14.064;2023-05-10T02:32:34;2.45;;;1.80;;
73684;SDS011;61985;51.070;14.064;2023-05-10T02:35:01;4.40;;;2.13;;
73684;SDS011;61985;51.070;14.064;2023-05-10T02:37:28;3.13;;;1.95;;
73684;SDS011;61985;51.070;14.064;2023-05-10T02:39:54;5.75;;;1.90;;
73684;SDS011;61985;51.070;14.064;2023-05-10T02:42:23;3.65;;;2.00;;
73684;SDS011;61985;51.070;14.064;2023-05-10T02:44:52;4.15;;;2.20;;
73684;SDS011;61985;51.070;14.064;2023-05-10T02:47:21;3.83;;;1.77;;
73684;SDS011;61985;51.070;14.064;2023-05-10T02:49:46;3.35;;;2.00;;
73684;SDS011;61985;51.070;14.064;2023-05-10T02:52:12;4.15;;;1.90;;
73684;SDS011;61985;51.070;14.064;2023-05-10T02:54:45;3.40;;;1.90;;
73684;SDS011;61985;51.070;14.064;2023-05-10T02:57:17;5.43;;;1.80;;
73684;SDS011;61985;51.070;14.064;2023-05-10T02:59:50;3.08;;;1.77;;
73684;SDS011;61985;51.070;14.064;2023-05-10T03:02:15;3.28;;;1.83;;
73684;SDS011;61985;51.070;14.064;2023-05-10T03:04:40;4.03;;;2.10;;
73684;SDS011;61985;51.070;14.064;2023-05-10T03:07:06;3.40;;;1.98;;
73684;SDS011;61985;51.070;14.064;2023-05-10T03:09:32;3.95;;;2.25;;
73684;SDS011;61985;51.070;14.064;2023-05-10T03:20:22;3.20;;;1.80;;
73684;SDS011;61985;51.070;14.064;2023-05-10T03:23:01;4.70;;;1.85;;
73684;SDS011;61985;51.070;14.064;2023-05-10T03:25:30;2.78;;;1.80;;
73684;SDS011;61985;51.070;14.064;2023-05-10T03:27:56;3.35;;;2.00;;
73684;SDS011;61985;51.070;14.064;2023-05-10T03:30:22;4.30;;;2.03;;
73684;SDS011;61985;51.070;14.064;2023-05-10T03:32:49;3.55;;;2.00;;
73684;SDS011;61985;51.070;14.064;2023-05-10T03:35:14;5.85;;;1.80;;
73684;SDS011;61985;51.070;14.064;2023-05-10T03:37:40;4.78;;;2.00;;
73684;SDS011;61985;51.070;14.064;2023-05-10T03:40:05;2.50;;;1.77;;
73684;SDS011;61985;51.070;14.064;2023-05-10T03:42:31;4.68;;;2.05;;
73684;SDS011;61985;51.070;14.064;2023-05-10T03:44:57;2.60;;;1.77;;
73684;SDS011;61985;51.070;14.064;2023-05-10T03:47:22;3.42;;;1.88;;
73684;SDS011;61985;51.070;14.064;2023-05-10T03:49:47;4.53;;;1.92;;
73684;SDS011;61985;51.070;14.064;2023-05-10T03:52:13;2.80;;;1.80;;
73684;SDS011;61985;51.070;14.064;2023-05-10T03:54:38;3.50;;;1.90;;
73684;SDS011;61985;51.070;14.064;2023-05-10T03:57:03;4.97;;;2.45;;
73684;SDS011;61985;51.070;14.064;2023-05-10T03:59:29;3.17;;;1.98;;
73684;SDS011;61985;51.070;14.064;2023-05-10T04:01:55;3.28;;;1.90;;
73684;SDS011;61985;51.070;14.064;2023-05-10T04:04:20;5.18;;;1.98;;
73684;SDS011;61985;51.070;14.064;2023-05-10T04:06:46;5.40;;;1.85;;
73684;SDS011;61985;51.070;14.064;2023-05-10T04:09:12;4.13;;;2.70;;
73684;SDS011;61985;51.070;14.064;2023-05-10T04:11:37;3.58;;;1.92;;
73684;SDS011;61985;51.070;14.064;2023-05-10T04:14:03;3.40;;;1.80;;
73684;SDS011;61985;51.070;14.064;2023-05-10T04:16:28;4.03;;;2.03;;
73684;SDS011;61985;51.070;14.064;2023-05-10T04:18:53;4.53;;;2.03;;
73684;SDS011;61985;51.070;14.064;2023-05-10T04:21:19;2.75;;;1.65;;
73684;SDS011;61985;51.070;14.064;2023-05-10T04:23:44;4.32;;;1.83;;
73684;SDS011;61985;51.070;14.064;2023-05-10T04:26:10;2.78;;;1.98;;
73684;SDS011;61985;51.070;14.064;2023-05-10T04:28:35;3.92;;;1.92;;
73684;SDS011;61985;51.070;14.064;2023-05-10T04:31:04;3.60;;;1.98;;
73684;SDS011;61985;51.070;14.064;2023-05-10T04:33:30;4.03;;;2.13;;
73684;SDS011;61985;51.070;14.064;2023-05-10T04:35:56;2.92;;;1.90;;
73684;SDS011;61985;51.070;14.064;2023-05-10T04:38:21;2.63;;;1.73;;
73684;SDS011;61985;51.070;14.064;2023-05-10T04:40:47;4.18;;;1.65;;
73684;SDS011;61985;51.070;14.064;2023-05-10T04:43:12;2.78;;;1.80;;
73684;SDS011;61985;51.070;14.064;2023-05-10T04:45:38;9.38;;;2.78;;
73684;SDS011;61985;51.070;14.064;2023-05-10T04:48:03;5.70;;;2.00;;
73684;SDS011;61985;51.070;14.064;2023-05-10T04:50:28;4.20;;;2.10;;
73684;SDS011;61985;51.070;14.064;2023-05-10T04:52:54;4.13;;;1.90;;
73684;SDS011;61985;51.070;14.064;2023-05-10T04:55:19;4.57;;;2.00;;
73684;SDS011;61985;51.070;14.064;2023-05-10T04:57:44;3.08;;;1.60;;
73684;SDS011;61985;51.070;14.064;2023-05-10T05:00:10;4.47;;;2.20;;
73684;SDS011;61985;51.070;14.064;2023-05-10T05:02:36;5.32;;;2.20;;
73684;SDS011;61985;51.070;14.064;2023-05-10T05:05:02;3.15;;;2.17;;
73684;SDS011;61985;51.070;14.064;2023-05-10T05:07:27;4.53;;;2.40;;
73684;SDS011;61985;51.070;14.064;2023-05-10T05:09:52;4.80;;;2.15;;
73684;SDS011;61985;51.070;14.064;2023-05-10T05:12:18;4.43;;;1.95;;
73684;SDS011;61985;51.070;14.064;2023-05-10T05:14:46;2.78;;;1.75;;
73684;SDS011;61985;51.070;14.064;2023-05-10T05:17:12;3.10;;;1.80;;
73684;SDS011;61985;51.070;14.064;2023-05-10T05:19:37;2.75;;;1.60;;
73684;SDS011;61985;51.070;14.064;2023-05-10T05:22:03;3.75;;;1.95;;
73684;SDS011;61985;51.070;14.064;2023-05-10T05:24:28;8.65;;;2.30;;
73684;SDS011;61985;51.070;14.064;2023-05-10T05:26:54;3.08;;;1.85;;
73684;SDS011;61985;51.070;14.064;2023-05-10T05:29:19;5.10;;;3.05;;
73684;SDS011;61985;51.070;14.064;2023-05-10T05:31:44;5.65;;;2.15;;
73684;SDS011;61985;51.070;14.064;2023-05-10T05:34:10;4.22;;;2.00;;
73684;SDS011;61985;51.070;14.064;2023-05-10T05:36:36;5.28;;;2.40;;
73684;SDS011;61985;51.070;14.064;2023-05-10T05:39:03;2.70;;;1.95;;
73684;SDS011;61985;51.070;14.064;2023-05-10T05:41:28;3.70;;;2.00;;
73684;SDS011;61985;51.070;14.064;2023-05-10T05:43:54;4.28;;;2.20;;
73684;SDS011;61985;51.070;14.064;2023-05-10T05:46:19;3.90;;;2.03;;
73684;SDS011;61985;51.070;14.064;2023-05-10T05:48:44;4.15;;;2.17;;
73684;SDS011;61985;51.070;14.064;2023-05-10T05:51:10;2.95;;;1.98;;
73684;SDS011;61985;51.070;14.064;2023-05-10T05:53:35;3.17;;;2.10;;
73684;SDS011;61985;51.070;14.064;2023-05-10T05:56:01;5.47;;;2.20;;
73684;SDS011;61985;51.070;14.064;2023-05-10T05:58:26;3.80;;;2.13;;
73684;SDS011;61985;51.070;14.064;2023-05-10T06:00:53;4.68;;;2.17;;
73684;SDS011;61985;51.070;14.064;2023-05-10T06:08:26;3.88;;;2.20;;
73684;SDS011;61985;51.070;14.064;2023-05-10T06:10:52;6.60;;;2.50;;
73684;SDS011;61985;51.070;14.064;2023-05-10T06:15:59;4.50;;;2.75;;
73684;SDS011;61985;51.070;14.064;2023-05-10T06:18:25;4.10;;;2.25;;
73684;SDS011;61985;51.070;14.064;2023-05-10T06:20:51;3.00;;;2.00;;
73684;SDS011;61985;51.070;14.064;2023-05-10T06:23:16;3.92;;;2.33;;
73684;SDS011;61985;51.070;14.064;2023-05-10T06:25:42;5.18;;;2.35;;
73684;SDS011;61985;51.070;14.064;2023-05-10T06:28:07;4.85;;;2.38;;
73684;SDS011;61985;51.070;14.064;2023-05-10T06:30:33;4.45;;;2.40;;
73684;SDS011;61985;51.070;14.064;2023-05-10T06:33:01;4.18;;;2.15;;
73684;SDS011;61985;51.070;14.064;2023-05-10T06:35:26;4.78;;;2.40;;
73684;SDS011;61985;51.070;14.064;2023-05-10T06:37:53;3.90;;;2.40;;
73684;SDS011;61985;51.070;14.064;2023-05-10T06:40:18;3.80;;;2.25;;
73684;SDS011;61985;51.070;14.064;2023-05-10T06:42:44;5.45;;;2.80;;
73684;SDS011;61985;51.070;14.064;2023-05-10T06:45:17;4.88;;;2.53;;
73684;SDS011;61985;51.070;14.064;2023-05-10T06:47:43;3.78;;;2.40;;
73684;SDS011;61985;51.070;14.064;2023-05-10T06:50:11;5.22;;;2.25;;
73684;SDS011;61985;51.070;14.064;2023-05-10T06:52:38;5.53;;;2.63;;
73684;SDS011;61985;51.070;14.064;2023-05-10T06:55:04;4.30;;;2.28;;
73684;SDS011;61985;51.070;14.064;2023-05-10T06:57:30;3.50;;;2.28;;
73684;SDS011;61985;51.070;14.064;2023-05-10T06:59:57;5.57;;;2.67;;
73684;SDS011;61985;51.070;14.064;2023-05-10T07:02:22;4.90;;;2.60;;
73684;SDS011;61985;51.070;14.064;2023-05-10T07:04:48;3.75;;;2.15;;
73684;SDS011;61985;51.070;14.064;2023-05-10T07:07:14;4.53;;;2.20;;
73684;SDS011;61985;51.070;14.064;2023-05-10T07:09:47;3.92;;;2.08;;
73684;SDS011;61985;51.070;14.064;2023-05-10T07:12:12;7.28;;;2.45;;
73684;SDS011;61985;51.070;14.064;2023-05-10T07:14:38;3.90;;;2.17;;
73684;SDS011;61985;51.070;14.064;2023-05-10T07:17:03;6.15;;;2.47;;
73684;SDS011;61985;51.070;14.064;2023-05-10T07:19:29;4.47;;;2.35;;
73684;SDS011;61985;51.070;14.064;2023-05-10T07:21:54;5.22;;;2.67;;
73684;SDS011;61985;51.070;14.064;2023-05-10T07:24:20;7.30;;;2.50;;
73684;SDS011;61985;51.070;14.064;2023-05-10T07:26:45;5.38;;;2.42;;
73684;SDS011;61985;51.070;14.064;2023-05-10T07:29:11;5.18;;;2.28;;
73684;SDS011;61985;51.070;14.064;2023-05-10T07:31:36;6.65;;;2.83;;
73684;SDS011;61985;51.070;14.064;2023-05-10T07:34:02;7.35;;;3.50;;
73684;SDS011;61985;51.070;14.064;2023-05-10T07:36:27;5.00;;;2.50;;
73684;SDS011;61985;51.070;14.064;2023-05-10T07:38:52;3.83;;;2.50;;
73684;SDS011;61985;51.070;14.064;2023-05-10T07:41:18;3.58;;;2.30;;
73684;SDS011;61985;51.070;14.064;2023-05-10T07:43:43;5.30;;;2.70;;
73684;SDS011;61985;51.070;14.064;2023-05-10T07:46:09;5.25;;;2.50;;
73684;SDS011;61985;51.070;14.064;2023-05-10T07:48:36;4.07;;;2.60;;
73684;SDS011;61985;51.070;14.064;2023-05-10T07:51:02;3.33;;;2.13;;
73684;SDS011;61985;51.070;14.064;2023-05-10T07:53:27;4.43;;;2.53;;
73684;SDS011;61985;51.070;14.064;2023-05-10T07:55:58;7.85;;;2.50;;
73684;SDS011;61985;51.070;14.064;2023-05-10T07:58:24;3.97;;;2.47;;
73684;SDS011;61985;51.070;14.064;2023-05-10T08:00:50;4.93;;;2.47;;
73684;SDS011;61985;51.070;14.064;2023-05-10T08:03:15;3.97;;;2.33;;
73684;SDS011;61985;51.070;14.064;2023-05-10T08:05:41;5.40;;;3.17;;
73684;SDS011;61985;51.070;14.064;2023-05-10T08:08:06;4.57;;;2.25;;
73684;SDS011;61985;51.070;14.064;2023-05-10T08:10:31;4.70;;;2.47;;
73684;SDS011;61985;51.070;14.064;2023-05-10T08:12:57;5.38;;;2.75;;
73684;SDS011;61985;51.070;14.064;2023-05-10T08:15:23;4.85;;;2.50;;
73684;SDS011;61985;51.070;14.064;2023-05-10T08:17:49;5.35;;;2.33;;
73684;SDS011;61985;51.070;14.064;2023-05-10T08:20:15;5.03;;;2.90;;
73684;SDS011;61985;51.070;14.064;2023-05-10T08:22:43;8.50;;;2.67;;
73684;SDS011;61985;51.070;14.064;2023-05-10T16:23:28;5.03;;;2.78;;
73684;SDS011;61985;51.070;14.064;2023-05-10T16:25:54;5.75;;;2.65;;
73684;SDS011;61985;51.070;14.064;2023-05-10T16:28:20;5.55;;;2.65;;
73684;SDS011;61985;51.070;14.064;2023-05-10T16:30:46;4.72;;;2.60;;
73684;SDS011;61985;51.070;14.064;2023-05-10T16:33:11;5.40;;;2.50;;
73684;SDS011;61985;51.070;14.064;2023-05-10T16:35:38;9.18;;;3.08;;
73684;SDS011;61985;51.070;14.064;2023-05-10T16:38:03;8.77;;;5.00;;
73684;SDS011;61985;51.070;14.064;2023-05-10T16:40:28;9.30;;;5.13;;
73684;SDS011;61985;51.070;14.064;2023-05-10T16:42:54;22.17;;;14.38;;
73684;SDS011;61985;51.070;14.064;2023-05-10T16:45:19;40.10;;;24.17;;
73684;SDS011;61985;51.070;14.064;2023-05-10T16:47:44;19.10;;;9.98;;
73684;SDS011;61985;51.070;14.064;2023-05-10T16:50:10;14.50;;;9.15;;
73684;SDS011;61985;51.070;14.064;2023-05-10T16:52:35;11.52;;;5.85;;
73684;SDS011;61985;51.070;14.064;2023-05-10T16:55:01;8.60;;;4.35;;
73684;SDS011;61985;51.070;14.064;2023-05-10T16:57:28;12.75;;;5.20;;
73684;SDS011;61985;51.070;14.064;2023-05-10T16:59:54;5.90;;;3.60;;
73684;SDS011;61985;51.070;14.064;2023-05-10T17:02:20;7.22;;;4.28;;
73684;SDS011;61985;51.070;14.064;2023-05-10T17:04:46;12.00;;;6.38;;
73684;SDS011;61985;51.070;14.064;2023-05-10T17:07:12;6.70;;;3.80;;
73684;SDS011;61985;51.070;14.064;2023-05-10T17:09:38;6.93;;;3.35;;
73684;SDS011;61985;51.070;14.064;2023-05-10T17:12:04;7.00;;;3.05;;
73684;SDS011;61985;51.070;14.064;2023-05-10T17:14:30;6.32;;;3.05;;
73684;SDS011;61985;51.070;14.064;2023-05-10T17:16:55;8.82;;;3.10;;
73684;SDS011;61985;51.070;14.064;2023-05-10T17:19:21;8.18;;;3.08;;
73684;SDS011;61985;51.070;14.064;2023-05-10T17:21:47;4.53;;;2.80;;
73684;SDS011;61985;51.070;14.064;2023-05-10T17:24:12;5.40;;;3.20;;
73684;SDS011;61985;51.070;14.064;2023-05-10T17:26:38;5.57;;;3.53;;
73684;SDS011;61985;51.070;14.064;2023-05-10T17:29:03;6.38;;;3.25;;
73684;SDS011;61985;51.070;14.064;2023-05-10T17:31:29;5.88;;;3.50;;
73684;SDS011;61985;51.070;14.064;2023-05-10T17:33:54;4.63;;;3.20;;
73684;SDS011;61985;51.070;14.064;2023-05-10T17:36:20;5.60;;;3.42;;
73684;SDS011;61985;51.070;14.064;2023-05-10T17:38:45;5.72;;;2.90;;
73684;SDS011;61985;51.070;14.064;2023-05-10T17:41:11;4.90;;;2.90;;
73684;SDS011;61985;51.070;14.064;2023-05-10T17:43:36;6.30;;;3.13;;
73684;SDS011;61985;51.070;14.064;2023-05-10T17:46:02;4.43;;;3.03;;
73684;SDS011;61985;51.070;14.064;2023-05-10T17:48:27;5.78;;;2.72;;
73684;SDS011;61985;51.070;14.064;2023-05-10T17:50:52;6.68;;;2.90;;
73684;SDS011;61985;51.070;14.064;2023-05-10T17:53:18;4.03;;;2.80;;
73684;SDS011;61985;51.070;14.064;2023-05-10T17:55:43;6.38;;;2.60;;
73684;SDS011;61985;51.070;14.064;2023-05-10T17:58:09;6.38;;;3.10;;
73684;SDS011;61985;51.070;14.064;2023-05-10T18:00:36;5.30;;;2.63;;
73684;SDS011;61985;51.070;14.064;2023-05-10T18:03:02;3.65;;;2.60;;
73684;SDS011;61985;51.070;14.064;2023-05-10T18:05:28;3.80;;;2.60;;
73684;SDS011;61985;51.070;14.064;2023-05-10T18:07:53;3.58;;;2.50;;
73684;SDS011;61985;51.070;14.064;2023-05-10T18:10:19;5.35;;;2.60;;
73684;SDS011;61985;51.070;14.064;2023-05-10T18:12:44;4.72;;;3.00;;
73684;SDS011;61985;51.070;14.064;2023-05-10T18:15:10;5.13;;;2.58;;
73684;SDS011;61985;51.070;14.064;2023-05-10T18:17:35;3.95;;;2.70;;
73684;SDS011;61985;51.070;14.064;2023-05-10T18:20:01;6.22;;;2.90;;
73684;SDS011;61985;51.070;14.064;2023-05-10T18:22:26;3.53;;;2.33;;
73684;SDS011;61985;51.070;14.064;2023-05-10T18:24:51;5.22;;;2.65;;
73684;SDS011;61985;51.070;14.064;2023-05-10T18:27:17;7.40;;;2.90;;
73684;SDS011;61985;51.070;14.064;2023-05-10T18:29:43;6.90;;;3.38;;
73684;SDS011;61985;51.070;14.064;2023-05-10T18:32:08;5.53;;;2.92;;
73684;SDS011;61985;51.070;14.064;2023-05-10T18:34:34;5.50;;;2.78;;
73684;SDS011;61985;51.070;14.064;2023-05-10T18:37:00;6.72;;;3.22;;
73684;SDS011;61985;51.070;14.064;2023-05-10T18:39:26;5.72;;;3.40;;
73684;SDS011;61985;51.070;14.064;2023-05-10T18:41:52;6.50;;;3.55;;
73684;SDS011;61985;51.070;14.064;2023-05-10T18:44:17;5.60;;;3.63;;
73684;SDS011;61985;51.070;14.064;2023-05-10T18:46:43;5.40;;;2.97;;
73684;SDS011;61985;51.070;14.064;2023-05-10T18:49:08;7.00;;;2.60;;
73684;SDS011;61985;51.070;14.064;2023-05-10T18:51:33;3.65;;;2.30;;
73684;SDS011;61985;51.070;14.064;2023-05-10T18:53:59;5.65;;;2.45;;
73684;SDS011;61985;51.070;14.064;2023-05-10T18:56:24;7.53;;;2.40;;
73684;SDS011;61985;51.070;14.064;2023-05-10T18:58:50;4.15;;;2.22;;
73684;SDS011;61985;51.070;14.064;2023-05-10T19:01:16;4.38;;;2.05;;
73684;SDS011;61985;51.070;14.064;2023-05-10T19:03:41;3.58;;;2.30;;
73684;SDS011;61985;51.070;14.064;2023-05-10T19:06:07;3.70;;;2.20;;
73684;SDS011;61985;51.070;14.064;2023-05-10T19:08:32;8.23;;;2.20;;
73684;SDS011;61985;51.070;14.064;2023-05-10T19:10:57;3.63;;;2.00;;
73684;SDS011;61985;51.070;14.064;2023-05-10T19:13:23;3.53;;;2.30;;
73684;SDS011;61985;51.070;14.064;2023-05-10T19:16:10;4.05;;;2.25;;
73684;SDS011;61985;51.070;14.064;2023-05-10T19:18:35;3.13;;;2.13;;
73684;SDS011;61985;51.070;14.064;2023-05-10T19:21:00;4.95;;;2.42;;
73684;SDS011;61985;51.070;14.064;2023-05-10T19:23:28;5.60;;;2.17;;
73684;SDS011;61985;51.070;14.064;2023-05-10T19:25:57;4.00;;;2.00;;
73684;SDS011;61985;51.070;14.064;2023-05-10T19:28:23;2.85;;;2.10;;
73684;SDS011;61985;51.070;14.064;2023-05-10T19:30:48;3.53;;;2.20;;
73684;SDS011;61985;51.070;14.064;2023-05-10T19:33:16;2.97;;;2.03;;
73684;SDS011;61985;51.070;14.064;2023-05-10T19:35:42;3.42;;;2.00;;
73684;SDS011;61985;51.070;14.064;2023-05-10T19:38:07;4.63;;;2.30;;
73684;SDS011;61985;51.070;14.064;2023-05-10T19:40:33;3.83;;;2.20;;
73684;SDS011;61985;51.070;14.064;2023-05-10T19:42:58;6.68;;;2.30;;
73684;SDS011;61985;51.070;14.064;2023-05-10T19:45:24;5.30;;;2.63;;
73684;SDS011;61985;51.070;14.064;2023-05-10T19:47:50;5.38;;;2.10;;
73684;SDS011;61985;51.070;14.064;2023-05-10T19:50:16;10.10;;;3.10;;
73684;SDS011;61985;51.070;14.064;2023-05-10T19:52:41;3.42;;;2.05;;
73684;SDS011;61985;51.070;14.064;2023-05-10T19:55:07;4.70;;;1.80;;
73684;SDS011;61985;51.070;14.064;2023-05-10T19:57:33;5.68;;;2.30;;
73684;SDS011;61985;51.070;14.064;2023-05-10T19:59:58;6.72;;;2.20;;
73684;SDS011;61985;51.070;14.064;2023-05-10T20:02:24;3.63;;;2.20;;
73684;SDS011;61985;51.070;14.064;2023-05-10T20:04:49;2.75;;;1.85;;
73684;SDS011;61985;51.070;14.064;2023-05-10T20:07:15;6.60;;;2.75;;
73684;SDS011;61985;51.070;14.064;2023-05-10T20:09:41;3.78;;;1.85;;
73684;SDS011;61985;51.070;14.064;2023-05-10T20:12:08;3.92;;;1.77;;
73684;SDS011;61985;51.070;14.064;2023-05-10T20:14:33;10.65;;;2.65;;
73684;SDS011;61985;51.070;14.064;2023-05-10T20:16:59;6.07;;;2.20;;
73684;SDS011;61985;51.070;14.064;2023-05-10T20:19:24;5.43;;;2.55;;
73684;SDS011;61985;51.070;14.064;2023-05-10T20:21:50;8.25;;;2.47;;
73684;SDS011;61985;51.070;14.064;2023-05-10T20:24:15;5.80;;;2.75;;
73684;SDS011;61985;51.070;14.064;2023-05-10T20:26:40;5.68;;;2.65;;
73684;SDS011;61985;51.070;14.064;2023-05-10T20:29:06;4.43;;;2.50;;
73684;SDS011;61985;51.070;14.064;2023-05-10T20:31:33;7.07;;;2.55;;
73684;SDS011;61985;51.070;14.064;2023-05-10T20:33:58;3.65;;;2.75;;
73684;SDS011;61985;51.070;14.064;2023-05-10T20:36:24;6.13;;;2.78;;
73684;SDS011;61985;51.070;14.064;2023-05-10T20:38:49;6.10;;;2.90;;
73684;SDS011;61985;51.070;14.064;2023-05-10T20:41:14;4.43;;;2.50;;
73684;SDS011;61985;51.070;14.064;2023-05-10T20:43:40;3.80;;;2.50;;
73684;SDS011;61985;51.070;14.064;2023-05-10T20:46:05;3.10;;;2.30;;
73684;SDS011;61985;51.070;14.064;2023-05-10T20:48:31;5.38;;;2.90;;
73684;SDS011;61985;51.070;14.064;2023-05-10T20:50:57;5.93;;;3.15;;
73684;SDS011;61985;51.070;14.064;2023-05-10T20:53:24;5.07;;;3.08;;
73684;SDS011;61985;51.070;14.064;2023-05-10T20:55:49;5.25;;;2.85;;
73684;SDS011;61985;51.070;14.064;2023-05-10T20:58:14;6.60;;;3.50;;
73684;SDS011;61985;51.070;14.064;2023-05-10T21:00:40;6.05;;;3.05;;
73684;SDS011;61985;51.070;14.064;2023-05-10T21:03:05;5.20;;;3.03;;
73684;SDS011;61985;51.070;14.064;2023-05-10T21:05:31;5.70;;;2.90;;
73684;SDS011;61985;51.070;14.064;2023-05-10T21:07:56;5.05;;;3.13;;
73684;SDS011;61985;51.070;14.064;2023-05-10T21:10:21;5.07;;;3.10;;
73684;SDS011;61985;51.070;14.064;2023-05-10T21:12:47;5.97;;;3.20;;
73684;SDS011;61985;51.070;14.064;2023-05-10T21:15:12;6.18;;;2.60;;
73684;SDS011;61985;51.070;14.064;2023-05-10T21:17:37;5.90;;;3.20;;
73684;SDS011;61985;51.070;14.064;2023-05-10T21:20:03;5.15;;;2.95;;
73684;SDS011;61985;51.070;14.064;2023-05-10T21:22:28;5.28;;;2.65;;
73684;SDS011;61985;51.070;14.064;2023-05-10T21:24:54;5.55;;;3.10;;
73684;SDS011;61985;51.070;14.064;2023-05-10T21:27:19;4.85;;;3.10;;
73684;SDS011;61985;51.070;14.064;2023-05-10T21:29:44;6.03;;;3.45;;
73684;SDS011;61985;51.070;14.064;2023-05-10T21:32:10;3.78;;;2.60;;
73684;SDS011;61985;51.070;14.064;2023-05-10T21:34:35;6.40;;;3.60;;
73684;SDS011;61985;51.070;14.064;2023-05-10T21:37:00;4.57;;;2.83;;
73684;SDS011;61985;51.070;14.064;2023-05-10T21:39:26;4.53;;;3.03;;
73684;SDS011;61985;51.070;14.064;2023-05-10T21:41:51;4.57;;;2.90;;
73684;SDS011;61985;51.070;14.064;2023-05-10T21:44:16;4.93;;;3.22;;
73684;SDS011;61985;51.070;14.064;2023-05-10T21:46:41;4.70;;;3.03;;
73684;SDS011;61985;51.070;14.064;2023-05-10T21:49:08;4.82;;;3.20;;
73684;SDS011;61985;51.070;14.064;2023-05-10T21:51:34;6.72;;;2.90;;
73684;SDS011;61985;51.070;14.064;2023-05-10T21:53:59;5.40;;;3.03;;
73684;SDS011;61985;51.070;14.064;2023-05-10T21:56:25;5.65;;;3.25;;
73684;SDS011;61985;51.070;14.064;2023-05-10T21:58:51;6.97;;;2.85;;
73684;SDS011;61985;51.070;14.064;2023-05-10T22:01:16;4.75;;;3.10;;
73684;SDS011;61985;51.070;14.064;2023-05-10T22:03:42;5.55;;;3.40;;
73684;SDS011;61985;51.070;14.064;2023-05-10T22:06:08;4.15;;;2.85;;
73684;SDS011;61985;51.070;14.064;2023-05-10T22:08:33;5.18;;;3.30;;
73684;SDS011;61985;51.070;14.064;2023-05-10T22:10:58;5.63;;;3.00;;
73684;SDS011;61985;51.070;14.064;2023-05-10T22:13:24;6.20;;;3.42;;
73684;SDS011;61985;51.070;14.064;2023-05-10T22:15:49;7.78;;;3.15;;
73684;SDS011;61985;51.070;14.064;2023-05-10T22:18:15;6.20;;;3.13;;
73684;SDS011;61985;51.070;14.064;2023-05-10T22:20:43;4.80;;;3.50;;
73684;SDS011;61985;51.070;14.064;2023-05-10T22:23:09;4.82;;;3.05;;
73684;SDS011;61985;51.070;14.064;2023-05-10T22:25:34;7.68;;;3.20;;
73684;SDS011;61985;51.070;14.064;2023-05-10T22:28:00;5.40;;;3.28;;
73684;SDS011;61985;51.070;14.064;2023-05-10T22:30:25;6.57;;;3.13;;
73684;SDS011;61985;51.070;14.064;2023-05-10T22:32:51;4.82;;;3.15;;
73684;SDS011;61985;51.070;14.064;2023-05-10T22:35:16;5.20;;;3.30;;
73684;SDS011;61985;51.070;14.064;2023-05-10T22:37:41;5.45;;;3.08;;
73684;SDS011;61985;51.070;14.064;2023-05-10T22:40:07;5.20;;;3.53;;
73684;SDS011;61985;51.070;14.064;2023-05-10T22:42:33;7.10;;;3.40;;
73684;SDS011;61985;51.070;14.064;2023-05-10T22:44:58;4.82;;;3.20;;
73684;SDS011;61985;51.070;14.064;2023-05-10T22:47:24;8.05;;;2.92;;
73684;SDS011;61985;51.070;14.064;2023-05-10T22:49:49;4.50;;;3.10;;
73684;SDS011;61985;51.070;14.064;2023-05-10T22:52:14;5.15;;;3.10;;
73684;SDS011;61985;51.070;14.064;2023-05-10T22:54:40;4.15;;;2.83;;
73684;SDS011;61985;51.070;14.064;2023-05-10T22:57:05;6.28;;;3.20;;
73684;SDS011;61985;51.070;14.064;2023-05-10T22:59:31;15.57;;;3.42;;
73684;SDS011;61985;51.070;14.064;2023-05-10T23:01:56;5.43;;;3.05;;
73684;SDS011;61985;51.070;14.064;2023-05-10T23:04:21;5.78;;;3.22;;
73684;SDS011;61985;51.070;14.064;2023-05-10T23:06:47;6.82;;;3.05;;
73684;SDS011;61985;51.070;14.064;2023-05-10T23:09:12;4.95;;;2.80;;
73684;SDS011;61985;51.070;14.064;2023-05-10T23:11:37;6.32;;;3.47;;
73684;SDS011;61985;51.070;14.064;2023-05-10T23:14:03;4.72;;;3.05;;
73684;SDS011;61985;51.070;14.064;2023-05-10T23:16:28;5.32;;;3.10;;
73684;SDS011;61985;51.070;14.064;2023-05-10T23:18:54;11.68;;;3.03;;
73684;SDS011;61985;51.070;14.064;2023-05-10T23:21:20;6.35;;;3.10;;
73684;SDS011;61985;51.070;14.064;2023-05-10T23:23:45;5.70;;;3.28;;
73684;SDS011;61985;51.070;14.064;2023-05-10T23:26:10;4.85;;;2.90;;
73684;SDS011;61985;51.070;14.064;2023-05-10T23:28:36;4.57;;;3.00;;
73684;SDS011;61985;51.070;14.064;2023-05-10T23:31:02;4.20;;;3.05;;
73684;SDS011;61985;51.070;14.064;2023-05-10T23:33:27;5.80;;;3.10;;
73684;SDS011;61985;51.070;14.064;2023-05-10T23:35:53;6.63;;;3.20;;
73684;SDS011;61985;51.070;14.064;2023-05-10T23:38:19;4.53;;;3.03;;
73684;SDS011;61985;51.070;14.064;2023-05-10T23:40:48;5.55;;;3.28;;
73684;SDS011;61985;51.070;14.064;2023-05-10T23:43:14;6.22;;;3.72;;
73684;SDS011;61985;51.070;14.064;2023-05-10T23:45:40;5.97;;;3.30;;